EmailTwitter


Surface observations / France / LFBO (07630)

Regions: Quebec | Canada | USA | Europe | France | UK | Elsewhere
Station
Display
Info & Location for LFBO (07630) | Help decoding METAR

Weather Conditions observed on 2018/04/24 at 08:00 UTC at TOULOUSE/BLAGNAC, FR (LFBO)

Sky conditions: overcast.

Temperature: 13.0 Celsius.

Dewpoint: 13.0 Celsius.

Relative Humidity: 100%

Winds: South at 6 km/h or 3 knots.

Mean Sea level Pressure: 102.10 kilopascals.

Horizontal visibility: 3.73 statute miles or 5.97 kilometers.

Height of the Ceiling: 91 metres ( 300 feet ).

Coded METAR:

LFBO 240800Z AUTO 18003KT 150V220 6000 1800 R32R/1200U OVC003 13/13 Q1021 BECMG

NSC=